Terminal Aerodrome Forecast
Issued by NWS Blacksburg, VA

Current Version | Previous Version | Graphics & Text | Print | Product List | Glossary On
Versions: 1 2 3 4 5 6 7 8 9 10 11 12 13 14 15 16 17 18 19 20 21 22 23 24 25 26 27 28 29 30 31 32 33 34 35 36 37 38 39 40 41 42 43 44 45 46 47 48 49 50
000
FTUS41 KRNK 042042 AAD
TAFBLF
TAF AMD
KBLF 042042Z 0421/0518 00000KT 1SM -RA BR SCT019 OVC028
     FM042300 30006KT 3/4SM -RA BR OVC008
     FM050600 31004KT 2SM -FZRA BR OVC006
     FM050700 32006KT 4SM -SNPL BR OVC003
     FM051000 36006KT 1SM -SN BR OVC003=

USA.gov is the U.S. government's official web portal to all federal, state and local government web resources and services.